createdAt,value
2019-04-10T04:01:18.833Z,7.49
2019-04-10T04:03:44.791Z,7.48
2019-04-10T04:06:11.158Z,7.45
2019-04-10T04:08:37.441Z,7.46
2019-04-10T04:11:03.589Z,7.46
2019-04-10T04:13:29.365Z,7.48
2019-04-10T04:15:55.326Z,7.49
2019-04-10T04:18:21.404Z,7.49
2019-04-10T04:20:47.560Z,7.50
2019-04-10T04:23:13.819Z,7.50
2019-04-10T04:25:40.565Z,7.49
2019-04-10T04:28:07.096Z,7.49
2019-04-10T04:30:34.054Z,7.52
2019-04-10T04:33:00.395Z,7.54
2019-04-10T04:35:26.059Z,7.54
2019-04-10T04:37:52.641Z,7.56
2019-04-10T04:40:19.674Z,7.60
2019-04-10T04:42:45.896Z,7.60
2019-04-10T04:45:12.770Z,7.61
2019-04-10T04:47:39.152Z,7.63
2019-04-10T04:50:05.605Z,7.63
2019-04-10T04:52:31.426Z,7.65
2019-04-10T04:54:57.566Z,7.66
2019-04-10T04:57:23.290Z,7.66
2019-04-10T04:59:49.018Z,7.65
2019-04-10T05:02:14.811Z,7.66
2019-04-10T05:04:41.630Z,7.65
2019-04-10T05:07:08.342Z,7.64
2019-04-10T05:09:38.409Z,7.60
2019-04-10T05:12:02.861Z,7.61
2019-04-10T05:14:29.479Z,7.59
2019-04-10T05:16:55.506Z,7.63
2019-04-10T05:19:21.401Z,7.65
2019-04-10T05:21:47.696Z,7.66
2019-04-10T05:24:13.834Z,7.66
2019-04-10T05:26:40.557Z,7.66
2019-04-10T05:29:06.382Z,7.71
2019-04-10T05:31:53.099Z,7.68
2019-04-10T05:34:19.893Z,7.68
2019-04-10T05:36:46.973Z,7.71
2019-04-10T05:39:12.860Z,7.72
2019-04-10T05:41:38.622Z,7.72
2019-04-10T05:44:04.684Z,7.71
2019-04-10T05:46:30.447Z,7.68
2019-04-10T05:48:56.288Z,7.70
2019-04-10T05:51:23.358Z,7.73
2019-04-10T05:53:52.296Z,7.75
2019-04-10T05:56:16.899Z,7.80
2019-04-10T05:58:42.898Z,7.83
2019-04-10T06:01:09.512Z,7.88
2019-04-10T06:03:36.573Z,7.91
2019-04-10T06:06:02.493Z,7.87
2019-04-10T06:08:28.243Z,7.87
2019-04-10T06:10:54.016Z,7.88
2019-04-10T06:13:19.796Z,7.96
2019-04-10T06:15:45.559Z,8.00
2019-04-10T06:18:12.770Z,8.05
2019-04-10T06:20:39.685Z,8.01
2019-04-10T06:23:05.567Z,8.02
2019-04-10T06:25:33.398Z,8.00
2019-04-10T06:27:59.358Z,8.04
2019-04-10T06:30:25.936Z,8.00
2019-04-10T06:32:51.845Z,8.00
2019-04-10T06:35:17.661Z,8.09
2019-04-10T06:37:43.372Z,8.19
2019-04-10T06:40:17.041Z,8.23
2019-04-10T06:42:45.803Z,8.23
2019-04-10T06:45:05.749Z,8.26
2019-04-10T06:47:31.674Z,8.20
2019-04-10T06:49:57.448Z,8.19
2019-04-10T06:52:23.700Z,8.25
2019-04-10T06:54:51.047Z,8.29
2019-04-10T06:57:17.273Z,8.41
2019-04-10T06:59:43.014Z,8.42
2019-04-10T07:02:20.275Z,8.42
2019-04-10T07:04:46.155Z,8.51
2019-04-10T07:07:09.349Z,8.49
2019-04-10T07:09:32.457Z,8.55
2019-04-10T07:12:01.072Z,8.66
2019-04-10T07:14:26.795Z,8.69
2019-04-10T07:16:53.058Z,8.64
2019-04-10T07:19:19.784Z,8.70
2019-04-10T07:21:45.691Z,8.76
2019-04-10T07:24:13.736Z,8.79
2019-04-10T07:26:42.211Z,8.76
2019-04-10T07:29:06.800Z,8.71
2019-04-10T07:31:36.040Z,8.71
2019-04-10T07:34:01.309Z,8.85
2019-04-10T07:36:27.221Z,8.88
2019-04-10T07:38:55.715Z,8.95
2019-04-10T07:41:23.231Z,8.99
2019-04-10T07:43:53.912Z,9.09
2019-04-10T07:46:17.289Z,9.25
2019-04-10T07:48:43.615Z,9.42
2019-04-10T07:51:09.514Z,9.63
2019-04-10T07:53:35.594Z,9.81
2019-04-10T07:56:06.805Z,9.78
2019-04-10T07:58:29.316Z,9.91
2019-04-10T08:00:55.172Z,9.98
2019-04-10T08:03:20.937Z,10.01
2019-04-10T08:05:46.716Z,9.93
2019-04-10T08:08:12.731Z,10.12
2019-04-10T08:10:41.185Z,10.25
2019-04-10T08:13:06.966Z,10.22
2019-04-10T08:15:33.641Z,10.16
2019-04-10T08:18:00.396Z,10.16
2019-04-10T08:20:26.276Z,9.96
2019-04-10T08:22:53.248Z,10.09
2019-04-10T08:25:19.107Z,10.38
2019-04-10T08:27:45.879Z,10.71
2019-04-10T08:30:12.552Z,10.83
2019-04-10T08:32:51.448Z,10.55
2019-04-10T08:35:06.993Z,10.66
2019-04-10T08:37:32.906Z,10.83
2019-04-10T08:39:59.056Z,10.92
2019-04-10T08:42:25.008Z,11.16
2019-04-10T08:44:50.770Z,11.45
2019-04-10T08:47:17.288Z,11.53
2019-04-10T08:49:43.306Z,11.54
2019-04-10T08:52:10.366Z,11.94
2019-04-10T08:54:36.420Z,11.72
2019-04-10T08:57:03.275Z,11.53
2019-04-10T08:59:29.996Z,11.56
2019-04-10T09:01:56.073Z,11.85
2019-04-10T09:04:21.837Z,11.54
2019-04-10T09:06:47.633Z,11.29
2019-04-10T09:09:13.388Z,11.32
2019-04-10T09:11:39.429Z,11.29
2019-04-10T09:14:05.557Z,11.32
2019-04-10T09:16:31.253Z,11.48
2019-04-10T09:18:57.877Z,11.49
2019-04-10T09:21:23.790Z,11.64
2019-04-10T09:23:52.811Z,11.79
2019-04-10T09:26:17.327Z,11.88
2019-04-10T09:28:43.087Z,11.70
2019-04-10T09:31:09.358Z,11.86
2019-04-10T09:33:35.160Z,12.00
2019-04-10T09:36:00.928Z,11.93
2019-04-10T09:38:26.689Z,12.07
2019-04-10T09:40:53.291Z,12.06
2019-04-10T09:43:19.378Z,12.03
2019-04-10T09:45:45.920Z,12.03
2019-04-10T09:48:12.795Z,11.78
2019-04-10T09:50:39.615Z,11.62
2019-04-10T09:53:05.945Z,11.74
2019-04-10T09:55:31.978Z,11.66
2019-04-10T09:57:57.772Z,11.52
2019-04-10T10:00:25.752Z,11.41
2019-04-10T10:02:52.893Z,11.14
2019-04-10T10:05:18.859Z,11.05
2019-04-10T10:07:45.182Z,10.93
2019-04-10T10:10:12.639Z,10.76
2019-04-10T10:12:38.769Z,10.57
2019-04-10T10:15:07.250Z,10.31
2019-04-10T10:17:33.126Z,10.13
2019-04-10T10:19:59.509Z,10.00
2019-04-10T10:22:25.342Z,9.92
2019-04-10T10:24:51.106Z,9.79
2019-04-10T10:27:17.792Z,9.77
2019-04-10T10:29:44.072Z,9.66
2019-04-10T10:32:10.908Z,9.69
2019-04-10T10:34:36.793Z,9.87
2019-04-10T10:37:03.901Z,9.88
2019-04-10T10:39:30.745Z,9.72
2019-04-10T10:41:56.625Z,9.61
2019-04-10T10:44:22.406Z,9.56
2019-04-10T10:46:48.177Z,9.47
2019-04-10T10:49:14.225Z,9.48
2019-04-10T10:51:39.990Z,9.37
2019-04-10T10:54:06.066Z,9.38
2019-04-10T10:56:32.038Z,9.27
2019-04-10T10:58:59.018Z,9.22
2019-04-10T11:01:25.260Z,9.23
2019-04-10T11:03:51.032Z,9.28
2019-04-10T11:06:17.848Z,9.20
2019-04-10T11:08:43.918Z,9.30
2019-04-10T11:11:10.238Z,9.31
2019-04-10T11:13:37.096Z,9.43
2019-04-10T11:16:05.630Z,9.30
2019-04-10T11:18:30.921Z,9.35
2019-04-10T11:21:02.937Z,9.29
2019-04-10T11:23:24.712Z,9.18
2019-04-10T11:25:50.836Z,9.00
2019-04-10T11:28:18.547Z,8.95
2019-04-10T11:30:45.004Z,8.93
2019-04-10T11:33:11.073Z,8.94
2019-04-10T11:35:37.378Z,8.88
2019-04-10T11:38:05.733Z,8.90
2019-04-10T11:40:31.783Z,8.84
2019-04-10T11:42:59.933Z,8.92
2019-04-10T11:45:28.610Z,8.95
2019-04-10T11:47:53.103Z,8.95
2019-04-10T11:50:18.937Z,8.95
2019-04-10T11:52:51.900Z,9.06
2019-04-10T11:55:17.049Z,9.20
2019-04-10T11:57:41.957Z,9.16
2019-04-10T12:00:12.061Z,9.12
2019-04-10T12:02:37.089Z,9.05
2019-04-10T12:05:09.554Z,9.09
2019-04-10T12:12:28.017Z,8.98
2019-04-10T12:14:54.248Z,9.00
2019-04-10T12:17:20.373Z,8.97
2019-04-10T12:19:46.715Z,9.05
2019-04-10T12:22:13.584Z,9.11
2019-04-10T12:24:40.463Z,9.03
2019-04-10T12:27:06.555Z,8.92
2019-04-10T12:29:33.000Z,8.89
2019-04-10T12:31:59.201Z,8.97
2019-04-10T12:34:24.972Z,8.93
2019-04-10T12:36:51.806Z,8.97
2019-04-10T12:39:18.394Z,8.86
2019-04-10T12:41:44.512Z,8.85
2019-04-10T12:44:10.276Z,8.81
2019-04-10T12:46:37.339Z,8.76
2019-04-10T12:49:03.835Z,8.74
2019-04-10T12:51:30.043Z,8.73
2019-04-10T12:53:56.167Z,8.66
2019-04-10T12:56:22.299Z,8.67
2019-04-10T12:58:47.995Z,8.69
2019-04-10T13:01:14.272Z,8.73
2019-04-10T13:03:41.170Z,8.71
2019-04-10T13:06:07.513Z,8.69
2019-04-10T13:08:51.449Z,8.67
2019-04-10T13:11:02.457Z,8.55
2019-04-10T13:13:28.728Z,8.49
2019-04-10T13:15:54.435Z,8.36
2019-04-10T13:18:20.507Z,8.31
2019-04-10T13:20:46.992Z,8.31
2019-04-10T13:23:14.881Z,8.36
2019-04-10T13:25:40.831Z,8.30
2019-04-10T13:28:08.268Z,8.31
2019-04-10T13:30:46.512Z,8.36
2019-04-10T13:33:02.572Z,8.43
2019-04-10T13:35:28.470Z,8.49
2019-04-10T13:37:54.841Z,8.49
2019-04-10T13:40:21.577Z,8.51
2019-04-10T13:42:47.707Z,8.57
2019-04-10T13:45:13.390Z,8.64
2019-04-10T13:47:39.103Z,8.66
2019-04-10T13:50:06.357Z,8.64
2019-04-10T13:52:32.355Z,8.65
2019-04-10T13:54:58.903Z,8.61
2019-04-10T13:57:24.776Z,8.63
2019-04-10T13:59:50.537Z,8.63
2019-04-10T14:02:18.353Z,8.64
2019-04-10T14:04:44.100Z,8.67
2019-04-10T14:07:11.497Z,8.67
2019-04-10T14:09:45.970Z,8.72
2019-04-10T14:12:05.977Z,8.73
2019-04-10T14:14:32.904Z,8.75
2019-04-10T14:16:59.333Z,8.80
2019-04-10T14:19:27.734Z,8.80
2019-04-10T14:21:53.664Z,8.73
2019-04-10T14:24:19.958Z,8.65
2019-04-10T14:26:50.406Z,8.62
2019-04-10T14:29:16.426Z,8.59
2019-04-10T14:31:44.729Z,8.60
2019-04-10T14:34:10.644Z,8.56
2019-04-10T14:36:36.736Z,8.62
2019-04-10T14:39:11.033Z,8.52
2019-04-10T14:41:33.683Z,8.45
2019-04-10T14:43:59.664Z,8.44
2019-04-10T14:46:26.294Z,8.46
2019-04-10T14:48:52.294Z,8.50
2019-04-10T14:51:18.127Z,8.49
2019-04-10T14:53:44.217Z,8.44
2019-04-10T14:56:10.551Z,8.45
2019-04-10T14:58:37.018Z,8.43
2019-04-10T15:01:06.804Z,8.41
2019-04-10T15:03:30.787Z,8.41
2019-04-10T15:05:58.280Z,8.33
2019-04-10T15:08:24.563Z,8.32
2019-04-10T15:10:50.597Z,8.32
2019-04-10T15:13:20.994Z,8.33
2019-04-10T15:15:44.899Z,8.27
2019-04-10T15:18:11.220Z,8.22
2019-04-10T15:20:37.583Z,8.24
2019-04-10T15:23:03.452Z,8.18
2019-04-10T15:25:29.498Z,8.24
2019-04-10T15:27:55.274Z,8.20
2019-04-10T15:30:22.223Z,8.15
2019-04-10T15:32:48.129Z,8.16
2019-04-10T15:35:13.903Z,8.14
2019-04-10T15:37:39.667Z,8.16
2019-04-10T15:40:17.707Z,8.14
2019-04-10T15:42:34.307Z,8.15
2019-04-10T15:45:00.779Z,8.16
2019-04-10T15:47:27.001Z,8.13
2019-04-10T15:49:53.548Z,8.12
2019-04-10T15:52:19.943Z,8.12
2019-04-10T15:54:46.088Z,8.11
2019-04-10T15:57:12.214Z,7.89
2019-04-10T15:59:38.569Z,8.07
2019-04-10T16:02:05.613Z,8.09
2019-04-10T16:04:31.718Z,8.06
2019-04-10T16:06:57.866Z,8.04
2019-04-10T16:09:25.300Z,8.00
2019-04-10T16:12:02.704Z,7.93
2019-04-10T16:14:30.267Z,7.92
2019-04-10T16:17:07.397Z,7.92
2019-04-10T16:19:38.810Z,7.87
2019-04-10T16:22:06.831Z,7.89
2019-04-10T16:24:33.109Z,7.88
2019-04-10T16:26:59.726Z,7.88
2019-04-10T16:29:26.736Z,7.92
2019-04-10T16:31:53.227Z,7.88
2019-04-10T16:34:19.829Z,7.91
2019-04-10T16:36:45.871Z,7.91
2019-04-10T16:39:17.577Z,7.92
2019-04-10T16:41:44.012Z,7.93
2019-04-10T16:44:10.977Z,7.92
2019-04-10T16:46:36.859Z,7.91
2019-04-10T16:49:02.653Z,7.92
2019-04-10T16:51:28.631Z,7.90
2019-04-10T16:53:54.409Z,7.93
2019-04-10T16:56:21.208Z,7.90
2019-04-10T16:58:47.945Z,7.88
2019-04-10T17:01:14.665Z,7.89
2019-04-10T17:03:40.847Z,7.88
2019-04-10T17:06:08.138Z,7.91
2019-04-10T17:08:34.361Z,7.90
2019-04-10T17:11:00.838Z,7.90
2019-04-10T17:13:26.720Z,7.87
2019-04-10T17:15:53.530Z,7.88
2019-04-10T17:18:19.380Z,7.85
2019-04-10T17:20:45.178Z,7.82
2019-04-10T17:23:12.155Z,7.82
2019-04-10T17:25:38.255Z,7.81
2019-04-10T17:28:04.379Z,7.82
2019-04-10T17:30:30.485Z,7.83
2019-04-10T17:32:56.450Z,7.84
2019-04-10T17:35:23.316Z,7.82
2019-04-10T17:37:49.911Z,7.82
2019-04-10T17:40:28.487Z,7.82
2019-04-10T17:42:44.327Z,7.81
2019-04-10T17:45:10.244Z,7.82
2019-04-10T17:47:36.748Z,7.83
2019-04-10T17:50:05.690Z,7.87
2019-04-10T17:52:34.670Z,7.87
2019-04-10T17:55:00.888Z,7.85
2019-04-10T17:57:36.491Z,7.86
2019-04-10T17:59:54.551Z,7.87
2019-04-10T18:02:21.206Z,7.86
2019-04-10T18:04:46.980Z,7.86
2019-04-10T18:07:12.761Z,7.86
2019-04-10T18:09:38.831Z,7.86
2019-04-10T18:12:06.071Z,7.84
2019-04-10T18:14:35.123Z,7.83
2019-04-10T18:17:00.426Z,7.83
2019-04-10T18:19:27.406Z,7.81
2019-04-10T18:21:54.201Z,7.84
2019-04-10T18:24:20.124Z,7.86
2019-04-10T18:26:46.262Z,7.86
2019-04-10T18:29:11.951Z,7.89
2019-04-10T18:31:37.839Z,7.90
2019-04-10T18:34:07.049Z,7.88
2019-04-10T18:36:31.941Z,7.87
2019-04-10T18:38:58.014Z,7.87
2019-04-10T18:41:24.220Z,7.88
2019-04-10T18:43:50.855Z,7.88
2019-04-10T18:46:19.424Z,7.89
2019-04-10T18:48:46.678Z,7.89
2019-04-10T18:51:12.584Z,7.88
2019-04-10T18:53:45.808Z,7.88
2019-04-10T18:56:13.218Z,7.89
2019-04-10T18:58:41.363Z,7.93
2019-04-10T19:01:18.919Z,7.93
2019-04-10T19:03:52.618Z,7.94
2019-04-10T19:06:16.373Z,7.95
2019-04-10T19:08:42.243Z,7.96
2019-04-10T19:11:20.028Z,7.97
2019-04-10T19:13:36.124Z,7.98
2019-04-10T19:16:02.016Z,7.98
2019-04-10T19:18:28.120Z,8.00
2019-04-10T19:20:56.570Z,7.97
2019-04-10T19:23:22.746Z,7.96
2019-04-10T19:25:49.852Z,7.98
2019-04-10T19:28:27.664Z,7.98
2019-04-10T19:30:45.776Z,7.99
2019-04-10T19:33:12.128Z,8.01
2019-04-10T19:35:39.199Z,8.00
2019-04-10T19:38:07.301Z,8.01
2019-04-10T19:40:33.977Z,8.01
2019-04-10T19:43:00.107Z,8.01
2019-04-10T19:45:27.860Z,8.02
2019-04-10T19:47:54.718Z,8.02
2019-04-10T19:50:21.389Z,8.03
2019-04-10T19:52:47.288Z,8.02
2019-04-10T19:55:13.592Z,8.04
2019-04-10T19:57:39.620Z,8.05
2019-04-10T20:00:08.259Z,8.05
2019-04-10T20:02:35.174Z,8.06
2019-04-10T20:05:01.302Z,8.08
2019-04-10T20:07:27.421Z,8.08
2019-04-10T20:09:53.219Z,8.08
2019-04-10T20:12:18.938Z,8.07
2019-04-10T20:14:44.979Z,8.06
2019-04-10T20:17:11.564Z,8.07
2019-04-10T20:19:38.362Z,8.05
2019-04-10T20:22:04.540Z,8.04
2019-04-10T20:24:30.243Z,8.06
2019-04-10T20:26:55.984Z,8.04
2019-04-10T20:29:23.207Z,8.06
2019-04-10T20:31:50.514Z,8.06
2019-04-10T20:34:16.282Z,8.06
2019-04-10T20:36:42.062Z,8.08
2019-04-10T20:39:09.339Z,8.05
2019-04-10T20:41:47.807Z,8.07
2019-04-10T20:44:03.720Z,8.07
2019-04-10T20:46:30.511Z,8.07
2019-04-10T20:48:57.145Z,8.07
2019-04-10T20:51:23.063Z,8.07
2019-04-10T20:53:50.783Z,8.06
2019-04-10T20:56:18.289Z,8.06
2019-04-10T20:58:44.848Z,8.04
